createdAt,value
2023-04-15T00:01:28.731Z,5.25
2023-04-15T00:06:32.174Z,3.45
2023-04-15T00:11:37.331Z,3.90
2023-04-15T00:16:40.934Z,4.32
2023-04-15T00:21:44.368Z,4.50
2023-04-15T00:26:49.334Z,7.25
2023-04-15T00:31:53.020Z,5.93
2023-04-15T00:36:56.616Z,6.00
2023-04-15T00:42:01.922Z,5.82
2023-04-15T00:47:07.132Z,4.95
2023-04-15T00:52:10.780Z,4.95
2023-04-15T00:57:16.097Z,5.72
2023-04-15T01:02:20.004Z,4.80
2023-04-15T01:07:23.585Z,4.37
2023-04-15T01:12:29.574Z,4.47
2023-04-15T01:17:33.278Z,3.53
2023-04-15T01:22:36.897Z,3.58
2023-04-15T01:27:43.626Z,4.22
2023-04-15T01:32:47.150Z,4.50
2023-04-15T01:38:11.563Z,4.05
2023-04-15T01:43:16.716Z,3.95
2023-04-15T01:48:21.870Z,4.68
2023-04-15T01:53:27.100Z,5.03
2023-04-15T01:58:33.199Z,4.43
2023-04-15T02:03:39.106Z,4.05
2023-04-15T02:08:43.912Z,5.63
2023-04-15T02:18:54.758Z,5.47
2023-04-15T02:23:59.732Z,3.25
2023-04-15T02:34:10.438Z,5.70
2023-04-15T02:44:25.154Z,3.63
2023-04-15T02:49:31.121Z,4.63
2023-04-15T02:54:35.740Z,6.65
2023-04-15T02:59:41.821Z,3.42
2023-04-15T03:04:46.666Z,4.03
2023-04-15T03:09:51.778Z,3.60
2023-04-15T03:14:57.943Z,3.30
2023-04-15T03:20:03.329Z,2.72
2023-04-15T03:25:08.415Z,3.28
2023-04-15T03:30:15.165Z,5.45
2023-04-15T03:35:19.933Z,4.28
2023-04-15T03:40:24.594Z,4.07
2023-04-15T03:45:30.745Z,5.05
2023-04-15T03:50:35.772Z,5.32
2023-04-15T04:00:46.414Z,8.95
2023-04-15T04:05:51.268Z,5.68
2023-04-15T04:10:56.305Z,4.20
2023-04-15T04:21:07.136Z,5.63
2023-04-15T04:26:11.770Z,3.67
2023-04-15T04:31:17.854Z,4.43
2023-04-15T04:36:22.574Z,4.78
2023-04-15T04:41:27.390Z,2.90
2023-04-15T04:46:33.477Z,3.50
2023-04-15T04:51:38.372Z,4.35
2023-04-15T04:56:43.086Z,6.57
2023-04-15T05:01:49.531Z,5.47
2023-04-15T05:06:54.562Z,6.38
2023-04-15T05:11:59.560Z,6.03
2023-04-15T05:17:05.754Z,8.35
2023-04-15T05:22:10.705Z,4.97
2023-04-15T05:32:21.854Z,5.00
2023-04-15T05:37:26.556Z,5.72
2023-04-15T05:42:31.613Z,3.72
2023-04-15T05:47:38.671Z,3.22
2023-04-15T05:52:43.782Z,4.05
2023-04-15T05:57:48.710Z,3.80
2023-04-15T06:07:59.692Z,5.25
2023-04-15T06:13:04.514Z,5.10
2023-04-15T06:18:11.926Z,7.10
2023-04-15T06:23:16.615Z,4.70
2023-04-15T06:33:27.384Z,4.43
2023-04-15T06:38:32.112Z,5.22
2023-04-15T06:48:42.653Z,4.90
2023-04-15T06:53:47.349Z,4.72
2023-04-15T07:03:57.841Z,3.40
2023-04-15T07:09:03.611Z,6.45
2023-04-15T07:14:08.677Z,5.93
2023-04-15T07:19:14.729Z,5.13
2023-04-15T07:24:20.924Z,4.78
2023-04-15T07:29:25.790Z,5.18
2023-04-15T07:34:32.685Z,4.63
2023-04-15T07:39:37.707Z,3.90
2023-04-15T07:44:42.556Z,7.05
2023-04-15T07:49:48.889Z,6.43
2023-04-15T07:54:53.994Z,5.47
2023-04-15T07:59:58.651Z,4.65
2023-04-15T08:05:05.453Z,7.57
2023-04-15T08:10:11.076Z,4.68
2023-04-15T08:15:15.848Z,4.60
2023-04-15T08:20:22.177Z,5.03
2023-04-15T08:25:27.403Z,3.33
2023-04-15T08:30:32.064Z,3.40
2023-04-15T08:40:45.004Z,4.70
2023-04-15T08:45:51.977Z,3.63
2023-04-15T08:50:59.223Z,5.60
2023-04-15T08:56:08.756Z,3.22
2023-04-15T09:01:14.515Z,3.38
2023-04-15T09:06:20.749Z,4.63
2023-04-15T09:11:25.516Z,4.45
2023-04-15T09:16:30.199Z,7.82
2023-04-15T09:21:36.282Z,3.72
2023-04-15T09:26:41.438Z,4.63
2023-04-15T09:31:46.664Z,3.80
2023-04-15T09:36:59.325Z,4.53
2023-04-15T09:42:08.475Z,7.88
2023-04-15T09:47:29.495Z,5.38
2023-04-15T09:52:35.670Z,6.43
2023-04-15T09:57:41.532Z,4.43
2023-04-15T10:02:47.341Z,5.63
2023-04-15T10:07:53.753Z,6.10
2023-04-15T10:12:58.671Z,4.72
2023-04-15T10:23:12.906Z,4.72
2023-04-15T10:28:18.480Z,7.07
2023-04-15T10:33:25.808Z,5.20
2023-04-15T10:38:36.678Z,5.53
2023-04-15T10:43:41.696Z,11.32
2023-04-15T10:53:58.781Z,4.20
2023-04-15T10:59:03.433Z,8.65
2023-04-15T11:04:08.492Z,6.25
2023-04-15T11:09:33.335Z,5.47
2023-04-15T11:14:43.517Z,4.45
2023-04-15T11:19:48.519Z,5.90
2023-04-15T11:29:59.002Z,5.75
2023-04-15T11:35:03.708Z,7.30
2023-04-15T11:40:11.763Z,6.15
2023-04-15T11:45:17.499Z,6.75
2023-04-15T11:50:23.784Z,6.25
2023-04-15T11:55:28.920Z,5.72
2023-04-15T12:00:32.657Z,6.72
2023-04-15T12:05:36.374Z,6.35
2023-04-15T12:10:41.256Z,7.70
2023-04-15T12:20:50.200Z,5.35
2023-04-15T12:25:55.285Z,5.07
2023-04-15T12:30:59.600Z,4.35
2023-04-15T12:36:03.381Z,6.55
2023-04-15T12:41:08.376Z,4.63
2023-04-15T12:46:11.919Z,6.13
2023-04-15T12:51:15.723Z,5.03
2023-04-15T12:56:20.774Z,4.00
2023-04-15T13:01:24.273Z,7.35
2023-04-15T13:06:29.317Z,4.88
2023-04-15T13:11:35.143Z,4.32
2023-04-15T13:16:38.722Z,7.47
2023-04-15T13:21:42.701Z,6.55
2023-04-15T13:26:50.115Z,4.87
2023-04-15T13:31:53.979Z,6.72
2023-04-15T13:36:57.793Z,6.03
2023-04-15T13:42:03.843Z,7.77
2023-04-15T13:47:07.478Z,5.70
2023-04-15T13:52:11.124Z,7.82
2023-04-15T13:57:16.304Z,5.50
2023-04-15T14:02:19.996Z,4.78
2023-04-15T14:07:23.780Z,6.57
2023-04-15T14:12:28.764Z,6.78
2023-04-15T14:17:32.518Z,6.15
2023-04-15T14:22:36.292Z,10.48
2023-04-15T14:27:41.273Z,9.43
2023-04-15T14:37:48.043Z,10.05
2023-04-15T14:42:53.362Z,12.60
2023-04-15T14:47:56.915Z,11.63
2023-04-15T14:53:00.628Z,15.43
2023-04-15T14:58:06.496Z,14.00
2023-04-15T15:03:13.882Z,15.38
2023-04-15T15:08:18.051Z,10.88
2023-04-15T15:13:23.277Z,13.00
2023-04-15T15:23:30.272Z,11.60
2023-04-15T15:28:35.571Z,9.32
2023-04-15T15:33:39.083Z,11.02
2023-04-15T15:38:42.991Z,13.65
2023-04-15T15:43:47.939Z,11.33
2023-04-15T15:48:51.634Z,9.07
2023-04-15T15:53:55.154Z,6.63
2023-04-15T15:59:00.112Z,7.93
2023-04-15T16:09:07.497Z,13.45
2023-04-15T16:14:14.144Z,8.90
2023-04-15T16:19:17.655Z,10.25
2023-04-15T16:24:21.406Z,9.95
2023-04-15T16:29:26.668Z,10.32
2023-04-15T16:34:30.167Z,11.00
2023-04-15T16:39:33.967Z,15.18
2023-04-15T16:44:39.012Z,10.77
2023-04-15T16:49:42.928Z,7.13
2023-04-15T16:54:46.500Z,14.77
2023-04-15T16:59:51.701Z,9.70
2023-04-15T17:09:58.547Z,14.75
2023-04-15T17:15:03.897Z,12.13
2023-04-15T17:20:12.446Z,14.00
2023-04-15T17:25:17.926Z,10.93
2023-04-15T17:30:28.304Z,12.80
2023-04-15T17:35:51.783Z,21.13
2023-04-15T17:41:15.522Z,19.23
2023-04-15T17:46:40.353Z,22.23
2023-04-15T17:52:04.188Z,18.55
2023-04-15T17:57:27.626Z,21.13
2023-04-15T18:02:52.985Z,16.00
2023-04-15T18:08:16.862Z,17.35
2023-04-15T18:13:42.579Z,17.17
2023-04-15T18:19:08.945Z,16.55
2023-04-15T18:24:12.520Z,16.08
2023-04-15T18:29:16.121Z,16.85
2023-04-15T18:34:21.087Z,17.55
2023-04-15T18:44:28.549Z,17.35
2023-04-15T18:49:34.114Z,14.43
2023-04-15T18:54:40.929Z,14.43
2023-04-15T18:59:44.712Z,14.98
2023-04-15T19:04:49.735Z,13.63
2023-04-15T19:14:56.710Z,15.23
2023-04-15T19:20:01.715Z,12.55
2023-04-15T19:25:08.043Z,15.00
2023-04-15T19:30:11.791Z,16.77
2023-04-15T19:35:16.850Z,15.52
2023-04-15T19:40:20.751Z,13.40
2023-04-15T19:45:24.693Z,14.30
2023-04-15T19:50:29.776Z,13.65
2023-04-15T19:55:33.539Z,16.30
2023-04-15T20:00:37.984Z,14.05
2023-04-15T20:05:43.225Z,13.13
2023-04-15T20:15:50.351Z,16.55
2023-04-15T20:20:55.330Z,12.77
2023-04-15T20:25:58.833Z,11.48
2023-04-15T20:31:02.752Z,15.25
2023-04-15T20:36:08.271Z,14.03
2023-04-15T20:41:11.896Z,11.88
2023-04-15T20:46:21.028Z,15.52
2023-04-15T20:51:27.636Z,11.77
2023-04-15T20:56:31.230Z,13.18
2023-04-15T21:01:34.810Z,13.90
2023-04-15T21:06:39.997Z,12.65
2023-04-15T21:12:00.418Z,14.27
2023-04-15T21:17:10.192Z,9.77
2023-04-15T21:22:16.381Z,11.90
2023-04-15T21:27:19.935Z,10.05
2023-04-15T21:32:23.609Z,9.02
2023-04-15T21:37:28.652Z,6.97
2023-04-15T21:42:32.379Z,15.05
2023-04-15T21:48:04.217Z,10.52
2023-04-15T21:53:01.161Z,13.63
2023-04-15T21:58:04.943Z,14.80
2023-04-15T22:03:08.581Z,9.20
2023-04-15T22:08:13.649Z,8.35
2023-04-15T22:18:21.601Z,10.85
2023-04-15T22:23:26.695Z,9.57
2023-04-15T22:28:30.265Z,12.02
2023-04-15T22:33:34.128Z,7.63
2023-04-15T22:38:39.080Z,9.73
2023-04-15T22:48:46.157Z,10.68
2023-04-15T22:53:51.224Z,9.48
2023-04-15T22:58:54.927Z,8.35
2023-04-15T23:04:05.891Z,8.15
2023-04-15T23:09:23.744Z,13.52
2023-04-15T23:14:28.287Z,9.48
2023-04-15T23:19:31.797Z,7.95
2023-04-15T23:24:36.700Z,10.50
2023-04-15T23:29:40.220Z,12.38
2023-04-15T23:34:43.643Z,10.43
2023-04-15T23:39:48.893Z,14.82
2023-04-15T23:44:52.668Z,10.60
2023-04-15T23:49:56.601Z,10.20
2023-04-15T23:55:01.610Z,8.40
